Time;durP1;ratioP1;P1;durP2;ratioP2;P2;SDS_P1;SDS_P2;PMS_P1;PMS_P2;Temp;Humidity;BMP_temperature;BMP_pressure;BME280_temperature;BME280_humidity;BME280_pressure;Samples;Min_cycle;Max_cycle;Signal;HPM_P1;HPM_P2
2023/08/01 00:00:27;;;;;;;;;;;;;;;14.89;100.00;99998.53;5071152;28;20335;-74
2023/08/01 00:02:52;;;;;;;;;;;;;;;14.91;100.00;99993.00;5052800;28;20327;-74
2023/08/01 00:05:17;;;;;;;;;;;;;;;14.92;100.00;99987.44;5071382;28;20004;-74
2023/08/01 00:07:43;;;;;;;;;;;;;;;14.91;100.00;99982.28;5071056;28;19923;-74
2023/08/01 00:10:08;;;;;;;;;;;;;;;14.89;100.00;99981.66;5070877;28;20286;-74
2023/08/01 00:12:33;;;;;;;;;;;;;;;14.90;100.00;99977.94;5071324;28;19923;-74
2023/08/01 00:14:59;;;;;;;;;;;;;;;14.86;100.00;99977.50;5071133;28;19920;-74
2023/08/01 00:17:24;;;;;;;;;;;;;;;14.79;100.00;99966.72;5071067;28;20007;-74
2023/08/01 00:19:49;;;;;;;;;;;;;;;14.74;100.00;99962.94;5071099;28;20353;-73
2023/08/01 00:22:14;;;;;;;;;;;;;;;14.75;100.00;99964.59;5071526;28;19935;-73
2023/08/01 00:24:40;;;;;;;;;;;;;;;14.78;100.00;99961.56;5071106;28;19924;-74
2023/08/01 00:27:05;;;;;;;;;;;;;;;14.77;100.00;99966.06;5071242;28;20004;-73
2023/08/01 00:29:30;;;;;;;;;;;;;;;14.73;100.00;99956.75;5071136;28;19973;-74
2023/08/01 00:31:56;;;;;;;;;;;;;;;14.68;100.00;99956.47;5070995;28;20272;-73
2023/08/01 00:34:21;;;;;;;;;;;;;;;14.66;100.00;99949.66;5071501;28;20066;-73
2023/08/01 00:36:46;;;;;;;;;;;;;;;14.62;100.00;99954.56;5070763;28;19919;-73
2023/08/01 00:39:11;;;;;;;;;;;;;;;14.65;100.00;99940.78;5071162;28;20003;-74
2023/08/01 00:41:37;;;;;;;;;;;;;;;14.71;100.00;99944.56;5071050;28;19912;-73
2023/08/01 00:44:02;;;;;;;;;;;;;;;14.71;100.00;99942.72;5071177;28;19932;-73
2023/08/01 00:46:27;;;;;;;;;;;;;;;14.69;100.00;99931.38;5071004;28;19917;-73
2023/08/01 00:48:53;;;;;;;;;;;;;;;14.71;100.00;99932.00;5070762;28;20313;-73
2023/08/01 00:51:18;;;;;;;;;;;;;;;14.74;100.00;99931.63;5071019;28;20406;-73
2023/08/01 00:53:46;;;;;;;;;;;;;;;14.77;100.00;99933.94;5071088;28;19966;-73
2023/08/01 00:56:11;;;;;;;;;;;;;;;14.76;100.00;99926.94;5052726;28;19966;-73
2023/08/01 00:58:36;;;;;;;;;;;;;;;14.79;100.00;99923.03;5071009;28;19917;-73
2023/08/01 01:01:03;;;;;;;;;;;;;;;14.84;100.00;99931.34;5071154;28;19920;-73
2023/08/01 01:03:28;;;;;;;;;;;;;;;14.88;100.00;99926.44;5070898;28;19920;-73
2023/08/01 01:06:00;;;;;;;;;;;;;;;14.92;100.00;99923.19;5071102;28;19932;-73
2023/08/01 01:08:25;;;;;;;;;;;;;;;14.98;100.00;99929.63;5070865;28;19997;-73
2023/08/01 01:10:50;;;;;;;;;;;;;;;15.01;100.00;99923.88;5052583;28;19920;-74
2023/08/01 01:13:15;;;;;;;;;;;;;;;15.01;100.00;99926.56;5070783;28;19970;-73
2023/08/01 01:15:41;;;;;;;;;;;;;;;15.03;100.00;99923.69;5070487;28;19921;-73
2023/08/01 01:18:06;;;;;;;;;;;;;;;14.99;100.00;99925.94;5070528;28;19992;-73
2023/08/01 01:20:35;;;;;;;;;;;;;;;14.98;100.00;99922.41;5070421;28;19924;-73
2023/08/01 01:23:01;;;;;;;;;;;;;;;15.01;100.00;99920.38;5072576;28;19923;-73
2023/08/01 01:25:27;;;;;;;;;;;;;;;15.05;100.00;99918.97;5073908;28;19995;-73
2023/08/01 01:27:53;;;;;;;;;;;;;;;15.08;100.00;99923.97;5074295;28;19916;-78
2023/08/01 01:30:19;;;;;;;;;;;;;;;15.15;100.00;99914.13;5074088;28;20015;-73
2023/08/01 01:32:45;;;;;;;;;;;;;;;15.22;100.00;99914.19;5073851;28;20111;-73
2023/08/01 01:35:10;;;;;;;;;;;;;;;15.29;100.00;99917.78;5074010;28;19955;-73
2023/08/01 01:37:35;;;;;;;;;;;;;;;15.33;100.00;99914.53;5074207;28;19924;-72
2023/08/01 01:40:00;;;;;;;;;;;;;;;15.37;100.00;99912.28;5073761;28;19989;-73
2023/08/01 01:42:26;;;;;;;;;;;;;;;15.37;100.00;99909.59;5073646;28;19916;-73
2023/08/01 01:44:51;;;;;;;;;;;;;;;15.36;100.00;99910.63;5073448;28;20264;-73
2023/08/01 01:47:17;;;;;;;;;;;;;;;15.37;100.00;99914.13;5055602;28;20019;-73
2023/08/01 01:49:42;;;;;;;;;;;;;;;15.38;100.00;99907.75;5073424;28;19924;-73
2023/08/01 01:52:07;;;;;;;;;;;;;;;15.37;100.00;99906.91;5055176;28;19916;-72
2023/08/01 01:54:32;;;;;;;;;;;;;;;15.37;100.00;99903.41;5055094;28;19928;-74
2023/08/01 01:56:58;;;;;;;;;;;;;;;15.36;100.00;99905.28;5073319;28;20317;-72
2023/08/01 01:59:23;;;;;;;;;;;;;;;15.34;100.00;99901.94;5055674;28;20015;-72
2023/08/01 02:01:48;;;;;;;;;;;;;;;15.29;100.00;99902.50;5073025;28;19921;-72
2023/08/01 02:04:13;;;;;;;;;;;;;;;15.25;100.00;99901.25;5055148;28;19917;-72
2023/08/01 02:06:39;;;;;;;;;;;;;;;15.21;100.00;99897.31;5073753;28;19921;-72
2023/08/01 02:09:04;;;;;;;;;;;;;;;15.19;100.00;99895.84;5073352;28;20213;-72
2023/08/01 02:11:29;;;;;;;;;;;;;;;15.18;100.00;99891.47;5073263;28;20222;-72
2023/08/01 02:13:55;;;;;;;;;;;;;;;15.20;100.00;99902.81;5073103;28;19917;-73
2023/08/01 02:16:20;;;;;;;;;;;;;;;15.20;100.00;99898.31;5072950;28;20310;-72
2023/08/01 02:18:45;;;;;;;;;;;;;;;15.11;100.00;99896.81;5072998;28;19916;-72
2023/08/01 02:21:10;;;;;;;;;;;;;;;15.03;100.00;99888.88;5073051;28;20274;-72
2023/08/01 02:23:37;;;;;;;;;;;;;;;14.95;100.00;99887.97;5072877;28;20302;-73
2023/08/01 02:26:03;;;;;;;;;;;;;;;14.88;100.00;99889.75;5072894;28;20057;-74
2023/08/01 02:28:28;;;;;;;;;;;;;;;14.85;100.00;99890.13;5072784;28;19992;-73
2023/08/01 02:30:53;;;;;;;;;;;;;;;14.83;100.00;99899.41;5072554;28;20338;-74
2023/08/01 02:33:18;;;;;;;;;;;;;;;14.80;100.00;99893.38;5072426;28;19927;-73
2023/08/01 02:35:45;;;;;;;;;;;;;;;14.78;100.00;99899.97;5072652;28;20264;-74
2023/08/01 02:38:11;;;;;;;;;;;;;;;14.73;100.00;99895.16;5072607;28;19957;-73
2023/08/01 02:40:36;;;;;;;;;;;;;;;14.72;100.00;99908.72;5072920;28;19968;-73
2023/08/01 02:43:01;;;;;;;;;;;;;;;14.73;100.00;99905.88;5072494;28;19956;-72
2023/08/01 02:45:26;;;;;;;;;;;;;;;14.76;100.00;99908.19;5072556;28;19960;-73
2023/08/01 02:47:52;;;;;;;;;;;;;;;14.79;100.00;99915.84;5072289;28;19923;-73
2023/08/01 02:50:17;;;;;;;;;;;;;;;14.82;100.00;99906.59;5072583;28;20389;-73
2023/08/01 02:52:42;;;;;;;;;;;;;;;14.85;100.00;99911.56;5071811;28;20272;-73
2023/08/01 02:55:08;;;;;;;;;;;;;;;14.86;100.00;99907.88;5072390;28;19978;-74
2023/08/01 02:57:33;;;;;;;;;;;;;;;14.86;100.00;99910.53;5071999;28;20327;-72
2023/08/01 02:59:59;;;;;;;;;;;;;;;14.86;100.00;99907.06;5072043;28;19927;-73
2023/08/01 03:02:24;;;;;;;;;;;;;;;14.84;100.00;99903.72;5071803;28;19920;-73
2023/08/01 03:04:49;;;;;;;;;;;;;;;14.86;100.00;99917.75;5072140;28;19958;-76
2023/08/01 03:07:14;;;;;;;;;;;;;;;14.91;100.00;99896.59;5072030;28;19993;-73
2023/08/01 03:09:40;;;;;;;;;;;;;;;14.92;100.00;99901.75;5071953;28;19920;-73
2023/08/01 03:12:05;;;;;;;;;;;;;;;14.85;100.00;99905.38;5071890;28;19917;-73
2023/08/01 03:14:32;;;;;;;;;;;;;;;14.80;100.00;99912.13;5053878;28;19920;-72
2023/08/01 03:16:57;;;;;;;;;;;;;;;14.75;100.00;99908.34;5071649;28;19933;-72
2023/08/01 03:19:24;;;;;;;;;;;;;;;14.70;100.00;99906.25;5071671;28;19989;-72
2023/08/01 03:21:49;;;;;;;;;;;;;;;14.69;100.00;99915.31;5072272;28;19917;-74
2023/08/01 03:24:14;;;;;;;;;;;;;;;14.71;100.00;99912.44;5071628;28;19927;-73
2023/08/01 03:26:39;;;;;;;;;;;;;;;14.74;100.00;99912.88;5053434;28;19999;-72
2023/08/01 03:29:05;;;;;;;;;;;;;;;14.76;100.00;99918.91;5071670;28;19923;-73
2023/08/01 03:31:30;;;;;;;;;;;;;;;14.78;100.00;99911.50;5071644;28;19927;-73
2023/08/01 03:33:58;;;;;;;;;;;;;;;14.81;100.00;99918.34;5071782;28;19935;-73
2023/08/01 03:36:23;;;;;;;;;;;;;;;14.81;100.00;99924.50;5053496;28;19920;-73
2023/08/01 03:38:48;;;;;;;;;;;;;;;14.85;100.00;99924.13;5071428;28;19924;-75
2023/08/01 03:41:14;;;;;;;;;;;;;;;14.88;100.00;99923.75;5070926;28;20395;-72
2023/08/01 03:43:39;;;;;;;;;;;;;;;14.88;100.00;99932.59;5071593;28;20343;-73
2023/08/01 03:46:04;;;;;;;;;;;;;;;14.85;100.00;99924.94;5070333;28;19923;-73
2023/08/01 03:48:30;;;;;;;;;;;;;;;14.76;100.00;99923.41;5071565;28;19924;-73
2023/08/01 03:50:55;;;;;;;;;;;;;;;14.68;100.00;99923.53;5071468;28;19923;-74
2023/08/01 03:53:20;;;;;;;;;;;;;;;14.60;100.00;99925.28;5071272;28;20351;-73
2023/08/01 03:55:46;;;;;;;;;;;;;;;14.56;100.00;99928.50;5071303;28;19916;-73
2023/08/01 03:58:11;;;;;;;;;;;;;;;14.55;100.00;99929.53;5071167;28;20000;-73
2023/08/01 04:00:37;;;;;;;;;;;;;;;14.54;100.00;99927.84;5071210;28;19977;-73
2023/08/01 04:03:02;;;;;;;;;;;;;;;14.54;100.00;99926.03;5071639;28;19980;-73
2023/08/01 04:05:28;;;;;;;;;;;;;;;14.53;100.00;99931.56;5071416;28;19924;-75
2023/08/01 04:07:56;;;;;;;;;;;;;;;14.54;100.00;99922.50;5052947;28;20013;-74
2023/08/01 04:10:22;;;;;;;;;;;;;;;14.54;100.00;99920.66;5071142;28;20324;-73
2023/08/01 04:12:47;;;;;;;;;;;;;;;14.56;100.00;99923.97;5070952;28;19916;-74
2023/08/01 04:15:12;;;;;;;;;;;;;;;14.55;100.00;99919.63;5071186;28;19977;-73
2023/08/01 04:17:37;;;;;;;;;;;;;;;14.55;100.00;99919.63;5071062;28;19916;-73
2023/08/01 04:20:03;;;;;;;;;;;;;;;14.53;100.00;99931.56;5071385;28;19917;-73
2023/08/01 04:22:28;;;;;;;;;;;;;;;14.52;100.00;99927.22;5071237;28;19963;-73
2023/08/01 04:24:53;;;;;;;;;;;;;;;14.53;100.00;99923.53;5071337;28;20296;-73
2023/08/01 04:27:18;;;;;;;;;;;;;;;14.53;100.00;99919.00;5070994;28;19916;-74
2023/08/01 04:29:44;;;;;;;;;;;;;;;14.59;100.00;99926.28;5071081;28;19920;-75
2023/08/01 04:32:12;;;;;;;;;;;;;;;14.62;100.00;99920.56;5071378;28;19913;-74
2023/08/01 04:34:37;;;;;;;;;;;;;;;14.60;100.00;99916.38;5070833;28;20335;-73
2023/08/01 04:37:03;;;;;;;;;;;;;;;14.60;100.00;99927.09;5070991;28;20011;-74
2023/08/01 04:39:28;;;;;;;;;;;;;;;14.62;100.00;99915.22;5070953;28;20114;-74
2023/08/01 04:41:53;;;;;;;;;;;;;;;14.66;100.00;99930.91;5071023;28;19924;-73
2023/08/01 04:44:19;;;;;;;;;;;;;;;14.66;100.00;99920.19;5070905;28;20344;-73
2023/08/01 04:46:44;;;;;;;;;;;;;;;14.67;100.00;99920.00;5070999;28;19986;-73
2023/08/01 04:49:09;;;;;;;;;;;;;;;14.67;100.00;99928.03;5071283;28;19916;-73
2023/08/01 04:51:34;;;;;;;;;;;;;;;14.66;100.00;99931.75;5070835;28;20008;-73
2023/08/01 04:53:59;;;;;;;;;;;;;;;14.69;100.00;99926.03;5071277;28;20010;-73
2023/08/01 04:56:25;;;;;;;;;;;;;;;14.70;100.00;99933.03;5071589;28;19962;-73
2023/08/01 04:58:50;;;;;;;;;;;;;;;14.73;100.00;99918.44;5074636;28;19920;-74
2023/08/01 05:01:15;;;;;;;;;;;;;;;14.79;100.00;99939.94;5074246;28;19928;-72
2023/08/01 05:03:40;;;;;;;;;;;;;;;14.78;100.00;99934.78;5074624;28;19982;-72
2023/08/01 05:06:06;;;;;;;;;;;;;;;14.73;100.00;99931.81;5056449;28;20327;-73
2023/08/01 05:08:31;;;;;;;;;;;;;;;14.71;100.00;99942.72;5074362;28;19939;-76
2023/08/01 05:10:56;;;;;;;;;;;;;;;14.72;100.00;99930.16;5074002;28;20006;-72
2023/08/01 05:13:21;;;;;;;;;;;;;;;14.72;100.00;99928.31;5074114;28;20320;-73
2023/08/01 05:15:47;;;;;;;;;;;;;;;14.74;100.00;99928.97;5074083;28;20003;-73
2023/08/01 05:18:13;;;;;;;;;;;;;;;14.76;100.00;99921.59;5056755;28;19916;-73
2023/08/01 05:20:38;;;;;;;;;;;;;;;14.75;100.00;99917.22;5074169;28;19912;-73
2023/08/01 05:23:03;;;;;;;;;;;;;;;14.77;100.00;99927.75;5074792;28;19939;-74
2023/08/01 05:25:29;;;;;;;;;;;;;;;14.77;100.00;99923.22;5074195;28;19923;-74
2023/08/01 05:27:54;;;;;;;;;;;;;;;14.78;100.00;99927.56;5074107;28;20396;-73
2023/08/01 05:30:19;;;;;;;;;;;;;;;14.88;100.00;99937.97;5074330;28;20348;-78
2023/08/01 05:32:46;;;;;;;;;;;;;;;14.99;100.00;99928.63;5074024;28;19921;-73
2023/08/01 05:35:11;;;;;;;;;;;;;;;15.05;100.00;99932.38;5073876;28;19916;-73
2023/08/01 05:37:37;;;;;;;;;;;;;;;15.07;100.00;99935.69;5073912;28;20221;-73
2023/08/01 05:40:03;;;;;;;;;;;;;;;15.07;100.00;99938.38;5073594;28;19923;-73
2023/08/01 05:42:28;;;;;;;;;;;;;;;15.10;100.00;99938.00;5073952;28;19978;-75
2023/08/01 05:44:53;;;;;;;;;;;;;;;15.15;100.00;99947.13;5073593;28;19920;-75
2023/08/01 05:47:19;;;;;;;;;;;;;;;15.26;100.00;99944.97;5073967;28;19917;-74
2023/08/01 05:49:44;;;;;;;;;;;;;;;15.40;100.00;99941.38;5073930;28;20247;-74
2023/08/01 05:52:09;;;;;;;;;;;;;;;15.52;100.00;99939.00;5073878;28;19916;-74
2023/08/01 05:54:35;;;;;;;;;;;;;;;15.60;100.00;99949.59;5073552;28;20386;-73
2023/08/01 05:57:00;;;;;;;;;;;;;;;15.63;100.00;99943.84;5055543;28;20109;-71
2023/08/01 05:59:25;;;;;;;;;;;;;;;15.62;100.00;99958.25;5055641;28;19966;-72
2023/08/01 06:01:51;;;;;;;;;;;;;;;15.63;100.00;99953.72;5073264;28;19927;-75
2023/08/01 06:04:16;;;;;;;;;;;;;;;15.68;100.00;99948.63;5073043;28;19923;-75
2023/08/01 06:06:41;;;;;;;;;;;;;;;15.76;100.00;99948.47;5073531;28;20329;-75
2023/08/01 06:09:06;;;;;;;;;;;;;;;15.74;100.00;99942.47;5072473;28;19960;-74
2023/08/01 06:11:33;;;;;;;;;;;;;;;15.73;100.00;99954.22;5073205;28;19921;-76
2023/08/01 06:13:58;;;;;;;;;;;;;;;15.71;100.00;99956.28;5073263;28;20098;-74
2023/08/01 06:16:23;;;;;;;;;;;;;;;15.63;100.00;99957.25;5073379;28;20019;-76
2023/08/01 06:18:49;;;;;;;;;;;;;;;15.63;100.00;99957.25;5072893;28;19977;-74
2023/08/01 06:21:14;;;;;;;;;;;;;;;15.79;100.00;99960.69;5072651;28;19917;-75
2023/08/01 06:23:39;;;;;;;;;;;;;;;16.02;100.00;99963.97;5072690;28;19917;-75
2023/08/01 06:26:04;;;;;;;;;;;;;;;16.10;100.00;99965.66;5072554;28;19963;-75
2023/08/01 06:28:30;;;;;;;;;;;;;;;16.06;100.00;99967.06;5072851;28;19920;-75
2023/08/01 06:30:56;;;;;;;;;;;;;;;15.77;100.00;99973.44;5072969;28;20364;-75
2023/08/01 06:33:21;;;;;;;;;;;;;;;15.47;100.00;99963.69;5073177;28;19936;-75
2023/08/01 06:35:47;;;;;;;;;;;;;;;15.28;100.00;99972.38;5072959;28;20344;-74
2023/08/01 06:38:12;;;;;;;;;;;;;;;15.09;100.00;99969.31;5072756;28;19969;-75
2023/08/01 06:40:37;;;;;;;;;;;;;;;15.09;100.00;99979.19;5054680;28;19976;-75
2023/08/01 06:43:02;;;;;;;;;;;;;;;15.13;100.00;99981.28;5072585;28;20227;-74
2023/08/01 06:45:28;;;;;;;;;;;;;;;15.12;100.00;99985.03;5072504;28;20024;-74
2023/08/01 06:47:53;;;;;;;;;;;;;;;15.14;100.00;99991.00;5072915;28;20319;-75
2023/08/01 06:50:18;;;;;;;;;;;;;;;15.25;100.00;99986.16;5072403;28;19968;-75
2023/08/01 06:52:43;;;;;;;;;;;;;;;15.36;100.00;99996.41;5072459;28;19982;-73
2023/08/01 06:55:09;;;;;;;;;;;;;;;15.53;100.00;99983.56;5072635;28;20267;-74
2023/08/01 06:57:34;;;;;;;;;;;;;;;15.69;100.00;99987.81;5072393;28;19923;-74
2023/08/01 06:59:59;;;;;;;;;;;;;;;15.79;100.00;99992.88;5072246;28;20354;-75
2023/08/01 07:02:25;;;;;;;;;;;;;;;16.01;100.00;99994.50;5072166;28;19920;-74
2023/08/01 07:04:50;;;;;;;;;;;;;;;16.22;100.00;100001.66;5072062;28;19938;-76
2023/08/01 07:07:15;;;;;;;;;;;;;;;16.43;100.00;99999.09;5071765;28;19912;-73
2023/08/01 07:09:41;;;;;;;;;;;;;;;16.35;100.00;100008.16;5072003;28;19973;-76
2023/08/01 07:12:06;;;;;;;;;;;;;;;16.32;100.00;100003.19;5054446;28;19917;-74
2023/08/01 07:14:31;;;;;;;;;;;;;;;16.44;100.00;99993.53;5072042;28;19916;-74
2023/08/01 07:16:56;;;;;;;;;;;;;;;16.57;100.00;100004.34;5071787;28;20000;-72
2023/08/01 07:19:22;;;;;;;;;;;;;;;16.73;100.00;99996.97;5071022;28;20348;-72
2023/08/01 07:21:48;;;;;;;;;;;;;;;16.77;100.00;100005.47;5071329;28;20261;-72
2023/08/01 07:24:14;;;;;;;;;;;;;;;16.70;100.00;100008.94;5071694;28;20032;-72
2023/08/01 07:26:40;;;;;;;;;;;;;;;16.66;100.00;100014.91;5071480;28;20000;-73
2023/08/01 07:29:07;;;;;;;;;;;;;;;16.66;100.00;100013.06;5071426;28;20296;-72
2023/08/01 07:31:33;;;;;;;;;;;;;;;16.85;100.00;100022.22;5071359;28;19917;-74
2023/08/01 07:33:58;;;;;;;;;;;;;;;16.94;100.00;100019.41;5071174;28;19924;-74
2023/08/01 07:36:24;;;;;;;;;;;;;;;17.16;100.00;100018.25;5071062;28;19932;-74
2023/08/01 07:38:49;;;;;;;;;;;;;;;17.33;100.00;100013.34;5071791;28;20337;-74
2023/08/01 07:41:14;;;;;;;;;;;;;;;17.35;100.00;100016.66;5071323;28;19916;-72
2023/08/01 07:43:39;;;;;;;;;;;;;;;17.35;100.00;100013.13;5070756;28;19924;-72
2023/08/01 07:46:04;;;;;;;;;;;;;;;17.44;100.00;100019.97;5071210;28;19916;-72
2023/08/01 07:48:30;;;;;;;;;;;;;;;17.41;100.00;100031.97;5052578;28;19917;-72
2023/08/01 07:50:55;;;;;;;;;;;;;;;17.25;100.00;100016.19;5070911;28;19956;-73
2023/08/01 07:53:20;;;;;;;;;;;;;;;17.11;100.00;100026.09;5070970;28;20001;-73
2023/08/01 07:55:46;;;;;;;;;;;;;;;16.91;100.00;100023.31;5070817;28;19917;-74
2023/08/01 07:58:11;;;;;;;;;;;;;;;16.81;100.00;100025.50;5070869;28;19917;-73
2023/08/01 08:00:36;;;;;;;;;;;;;;;16.84;100.00;100025.97;5070821;28;19916;-73
2023/08/01 08:03:01;;;;;;;;;;;;;;;16.84;100.00;100025.97;5070196;28;20320;-73
2023/08/01 08:05:27;;;;;;;;;;;;;;;16.82;100.00;100037.94;5070806;28;20439;-74
2023/08/01 08:07:52;;;;;;;;;;;;;;;16.79;100.00;100039.16;5070610;28;19917;-73
2023/08/01 08:10:17;;;;;;;;;;;;;;;16.79;100.00;100033.78;5052754;28;20363;-73
2023/08/01 08:12:42;;;;;;;;;;;;;;;16.77;100.00;100035.84;5070927;28;19940;-72
2023/08/01 08:15:08;;;;;;;;;;;;;;;16.91;100.00;100037.59;5052521;28;20383;-73
2023/08/01 08:17:33;;;;;;;;;;;;;;;17.15;100.00;100045.31;5070476;28;19916;-74
2023/08/01 08:19:58;;;;;;;;;;;;;;;17.24;100.00;100017.22;5070982;28;19912;-74
2023/08/01 08:22:24;;;;;;;;;;;;;;;17.19;100.00;100046.59;5070627;28;19924;-73
2023/08/01 08:24:49;;;;;;;;;;;;;;;17.07;100.00;100065.16;5070490;28;20202;-73
2023/08/01 08:27:14;;;;;;;;;;;;;;;16.91;100.00;100064.47;5070692;28;20447;-73
2023/08/01 08:29:40;;;;;;;;;;;;;;;16.83;100.00;100051.16;5070449;28;19913;-73
2023/08/01 08:32:05;;;;;;;;;;;;;;;16.71;100.00;100044.69;5072905;28;20003;-73
2023/08/01 08:34:31;;;;;;;;;;;;;;;16.75;100.00;100045.97;5074140;28;19928;-73
2023/08/01 08:36:56;;;;;;;;;;;;;;;17.02;100.00;100046.94;5074458;28;19927;-76
2023/08/01 08:39:21;;;;;;;;;;;;;;;17.40;100.00;100053.66;5074493;28;20047;-74
2023/08/01 08:41:51;;;;;;;;;;;;;;;17.70;100.00;100061.38;5074103;28;19917;-73
2023/08/01 08:44:19;;;;;;;;;;;;;;;17.71;100.00;100054.97;5074127;28;19919;-74
2023/08/01 08:46:49;;;;;;;;;;;;;;;17.68;100.00;100050.00;5073943;28;19922;-74
2023/08/01 08:49:15;;;;;;;;;;;;;;;17.47;100.00;100059.09;5074232;28;19930;-73
2023/08/01 08:51:42;;;;;;;;;;;;;;;17.32;100.00;100061.94;5074100;28;19912;-73
2023/08/01 08:54:08;;;;;;;;;;;;;;;17.20;100.00;100064.38;5074345;28;19912;-73
2023/08/01 08:56:35;;;;;;;;;;;;;;;17.08;100.00;100064.94;5073980;28;19919;-74
2023/08/01 08:59:00;;;;;;;;;;;;;;;17.03;100.00;100064.72;5073879;28;19994;-74
2023/08/01 09:01:25;;;;;;;;;;;;;;;17.23;100.00;100066.66;5055772;28;19912;-73
2023/08/01 09:03:51;;;;;;;;;;;;;;;17.41;100.00;100060.72;5074847;28;19920;-73
2023/08/01 09:06:19;;;;;;;;;;;;;;;17.60;100.00;100069.84;5074109;28;19923;-73
2023/08/01 09:08:51;;;;;;;;;;;;;;;18.02;100.00;100072.41;5074271;28;19913;-77
2023/08/01 09:11:16;;;;;;;;;;;;;;;18.17;100.00;100070.34;5074608;28;20006;-78
2023/08/01 09:13:42;;;;;;;;;;;;;;;18.11;100.00;100066.63;5073983;28;19993;-74
2023/08/01 09:16:08;;;;;;;;;;;;;;;18.06;100.00;100071.78;5073931;28;20360;-73
2023/08/01 09:18:33;;;;;;;;;;;;;;;18.03;100.00;100074.88;5073913;28;20028;-75
2023/08/01 09:21:02;;;;;;;;;;;;;;;18.42;100.00;100069.69;5055796;28;20363;-74
2023/08/01 09:23:27;;;;;;;;;;;;;;;19.12;100.00;100079.91;5073877;28;19923;-74
2023/08/01 09:25:53;;;;;;;;;;;;;;;19.54;100.00;100059.56;5073678;28;19916;-74
2023/08/01 09:28:24;;;;;;;;;;;;;;;19.96;100.00;100078.00;5073949;28;19923;-75
2023/08/01 09:30:57;;;;;;;;;;;;;;;19.79;100.00;100091.19;5055629;28;19989;-74
2023/08/01 09:33:23;;;;;;;;;;;;;;;19.55;100.00;100090.88;5074051;28;19932;-75
2023/08/01 09:35:52;;;;;;;;;;;;;;;19.56;100.00;100086.31;5073581;28;20024;-76
2023/08/01 09:38:17;;;;;;;;;;;;;;;19.43;100.00;100100.69;5073470;28;19923;-74
2023/08/01 09:40:43;;;;;;;;;;;;;;;19.23;100.00;100102.66;5073445;28;20324;-76
2023/08/01 09:43:10;;;;;;;;;;;;;;;18.92;100.00;100102.38;5072209;28;19912;-75
2023/08/01 09:45:35;;;;;;;;;;;;;;;19.32;100.00;100096.00;5072839;28;19961;-74
2023/08/01 09:48:00;;;;;;;;;;;;;;;19.75;100.00;100103.44;5073783;28;19916;-74
2023/08/01 09:50:26;;;;;;;;;;;;;;;19.38;100.00;100095.16;5055225;28;20301;-78
2023/08/01 09:52:54;;;;;;;;;;;;;;;19.81;100.00;100108.00;5055088;28;19929;-74
2023/08/01 09:55:40;;;;;;;;;;;;;;;19.50;100.00;100119.56;5073476;28;20030;-78
2023/08/01 09:58:07;;;;;;;;;;;;;;;19.40;100.00;100103.84;5072132;28;19983;-75
2023/08/01 10:00:32;;;;;;;;;;;;;;;19.92;100.00;100105.66;5055164;28;20362;-77
2023/08/01 10:03:00;;;;;;;;;;;;;;;20.07;100.00;100108.84;5072883;28;20023;-75
2023/08/01 10:05:26;;;;;;;;;;;;;;;19.59;100.00;100115.56;5072910;28;20011;-77
2023/08/01 10:07:54;;;;;;;;;;;;;;;19.57;100.00;100114.94;5072758;28;20002;-75
2023/08/01 10:10:19;;;;;;;;;;;;;;;19.42;100.00;100109.00;5072997;28;20007;-76
2023/08/01 10:12:45;;;;;;;;;;;;;;;19.15;100.00;100112.66;5054594;28;20324;-76
2023/08/01 10:15:11;;;;;;;;;;;;;;;18.73;100.00;100111.28;5072480;28;19920;-75
2023/08/01 10:17:36;;;;;;;;;;;;;;;18.96;100.00;100117.09;5072175;28;19917;-74
2023/08/01 10:20:03;;;;;;;;;;;;;;;19.63;100.00;100111.41;5072612;28;20368;-75
2023/08/01 10:22:29;;;;;;;;;;;;;;;19.97;100.00;100112.03;5072391;28;19986;-75
2023/08/01 10:24:54;;;;;;;;;;;;;;;20.06;100.00;100113.44;5072249;28;19928;-75
2023/08/01 10:27:20;;;;;;;;;;;;;;;19.70;100.00;100119.44;5072376;28;19917;-75
2023/08/01 10:29:55;;;;;;;;;;;;;;;18.90;100.00;100125.16;5072508;28;19924;-76
2023/08/01 10:32:27;;;;;;;;;;;;;;;18.56;100.00;100124.41;5072523;28;20018;-75
2023/08/01 10:34:52;;;;;;;;;;;;;;;18.96;100.00;100122.47;5072415;28;19923;-75
2023/08/01 10:37:17;;;;;;;;;;;;;;;19.74;100.00;100117.97;5072255;28;19916;-75
2023/08/01 10:39:43;;;;;;;;;;;;;;;19.75;100.00;100122.34;5072485;28;19924;-76
2023/08/01 10:42:12;;;;;;;;;;;;;;;19.59;100.00;100131.75;5072387;28;19916;-74
2023/08/01 10:44:44;;;;;;;;;;;;;;;19.40;100.00;100141.59;5072458;28;19948;-76
2023/08/01 10:47:10;;;;;;;;;;;;;;;19.03;100.00;100141.31;5071849;28;19917;-74
2023/08/01 10:49:44;;;;;;;;;;;;;;;18.70;100.00;100146.75;5072506;28;19921;-74
2023/08/01 10:52:28;;;;;;;;;;;;;;;18.55;100.00;100145.09;5071507;28;20018;-75
2023/08/01 10:55:00;;;;;;;;;;;;;;;18.50;100.00;100134.94;5071920;28;20031;-75
2023/08/01 10:57:29;;;;;;;;;;;;;;;18.70;100.00;100146.75;5071699;28;20003;-80
2023/08/01 10:59:55;;;;;;;;;;;;;;;19.00;100.00;100158.75;5053796;28;19928;-76
2023/08/01 11:02:26;;;;;;;;;;;;;;;19.62;100.00;100152.91;5071770;28;20226;-76
2023/08/01 11:04:59;;;;;;;;;;;;;;;20.20;100.00;100143.03;5071920;28;21546;-75
2023/08/01 11:07:25;;;;;;;;;;;;;;;20.13;100.00;100147.66;5071697;28;19932;-75
2023/08/01 11:10:04;;;;;;;;;;;;;;;20.39;100.00;100149.31;5071870;28;19924;-76
2023/08/01 11:12:30;;;;;;;;;;;;;;;19.92;100.00;100170.44;5071796;28;20225;-75
2023/08/01 11:14:59;;;;;;;;;;;;;;;19.24;100.00;100155.56;5071759;28;19917;-75
2023/08/01 11:17:25;;;;;;;;;;;;;;;18.87;100.00;100168.72;5071820;28;19952;-75
2023/08/01 11:19:50;;;;;;;;;;;;;;;19.03;100.00;100165.56;5054143;28;20343;-76
2023/08/01 11:22:15;;;;;;;;;;;;;;;19.29;100.00;100169.25;5072057;28;20348;-79
2023/08/01 11:24:49;;;;;;;;;;;;;;;19.44;100.00;100167.09;5054105;28;19986;-75
2023/08/01 11:27:15;;;;;;;;;;;;;;;19.48;100.00;100162.94;5054023;28;19942;-76
2023/08/01 11:29:40;;;;;;;;;;;;;;;19.02;100.00;100170.16;5071354;28;19932;-76
2023/08/01 11:32:06;;;;;;;;;;;;;;;19.01;100.00;100167.66;5071197;28;19916;-75
2023/08/01 11:34:39;;;;;;;;;;;;;;;19.62;100.00;100169.09;5070978;28;19935;-74
2023/08/01 11:37:05;;;;;;;;;;;;;;;19.55;100.00;100171.81;5071240;28;19923;-76
2023/08/01 11:39:30;;;;;;;;;;;;;;;19.73;100.00;100168.44;5071462;28;20292;-74
2023/08/01 11:41:56;;;;;;;;;;;;;;;20.30;100.00;100173.06;5052381;28;19921;-75
2023/08/01 11:44:24;;;;;;;;;;;;;;;20.34;100.00;100182.38;5070978;28;19925;-73
2023/08/01 11:46:49;;;;;;;;;;;;;;;19.81;100.00;100171.94;5070912;28;19931;-76
2023/08/01 11:49:15;;;;;;;;;;;;;;;19.19;100.00;100173.19;5071005;28;19924;-75
2023/08/01 11:51:41;;;;;;;;;;;;;;;18.71;100.00;100186.13;5071162;28;20436;-75
2023/08/01 11:54:07;;;;;;;;;;;;;;;18.82;100.00;100185.47;5070829;28;19916;-75
2023/08/01 11:56:33;;;;;;;;;;;;;;;19.13;100.00;100173.22;5052711;28;20441;-77
2023/08/01 11:58:58;;;;;;;;;;;;;;;19.89;100.00;100177.09;5052477;28;20015;-76
2023/08/01 12:01:24;;;;;;;;;;;;;;;20.40;100.00;100188.78;5071047;28;19988;-76
2023/08/01 12:03:50;;;;;;;;;;;;;;;20.71;100.00;100176.31;5070674;28;20031;-76
2023/08/01 12:06:16;;;;;;;;;;;;;;;21.70;100.00;100170.84;5070210;28;19927;-77
2023/08/01 12:08:43;;;;;;;;;;;;;;;22.66;100.00;100172.72;5070691;28;19965;-77
2023/08/01 12:11:37;;;;;;;;;;;;;;;22.33;100.00;100193.94;5070610;28;19927;-73
2023/08/01 12:14:09;;;;;;;;;;;;;;;22.22;100.00;100194.69;5034908;28;19935;-74
2023/08/01 12:16:35;;;;;;;;;;;;;;;22.06;100.00;100189.94;5070935;28;19916;-75
2023/08/01 12:19:00;;;;;;;;;;;;;;;22.39;100.00;100199.47;5052511;28;20257;-74
2023/08/01 12:21:25;;;;;;;;;;;;;;;22.24;100.00;100194.44;5070660;28;19920;-74
2023/08/01 12:23:51;;;;;;;;;;;;;;;21.61;100.00;100191.97;5070599;28;19943;-75
2023/08/01 12:26:16;;;;;;;;;;;;;;;21.19;100.00;100193.72;5070484;28;19962;-75